Time;durP1;ratioP1;P1;durP2;ratioP2;P2;SDS_P1;SDS_P2;PMS_P1;PMS_P2;Temp;Humidity;BMP_temperature;BMP_pressure;BME280_temperature;BME280_humidity;BME280_pressure;Samples;Min_cycle;Max_cycle;Signal;HPM_P1;HPM_P2
2023/01/27 00:00:50;;;;;;;10.07;4.53;;;1.50;99.90;;;;;;5098805;28;25069;-77
2023/01/27 00:03:19;;;;;;;16.38;6.43;;;1.50;99.90;;;;;;5080986;28;25056;-76
2023/01/27 00:05:47;;;;;;;14.50;5.72;;;1.50;99.90;;;;;;5099006;28;25067;-77
2023/01/27 00:08:15;;;;;;;16.13;6.30;;;1.50;99.90;;;;;;5098661;28;25106;-77
2023/01/27 00:10:42;;;;;;;10.95;4.68;;;1.50;99.90;;;;;;5080726;28;25073;-77
2023/01/27 00:13:26;;;;;;;12.52;5.35;;;1.50;99.90;;;;;;5098791;28;25141;-76
2023/01/27 00:15:54;;;;;;;13.52;5.05;;;1.50;99.90;;;;;;5098838;28;25110;-77
2023/01/27 00:18:22;;;;;;;10.73;4.88;;;1.50;99.90;;;;;;5080548;28;25071;-77
2023/01/27 00:26:21;;;;;;;9.27;4.97;;;1.50;99.90;;;;;;5098557;28;25072;-77
2023/01/27 00:28:49;;;;;;;10.77;4.47;;;1.50;99.90;;;;;;5080262;28;25065;-77
2023/01/27 00:34:10;;;;;;;10.32;4.22;;;1.60;99.90;;;;;;5098241;28;25082;-77
2023/01/27 00:36:40;;;;;;;10.75;4.10;;;1.60;99.90;;;;;;5098413;28;25070;-77
2023/01/27 00:39:09;;;;;;;11.25;3.85;;;1.50;99.90;;;;;;5079128;28;25151;-76
2023/01/27 00:41:37;;;;;;;12.57;4.25;;;1.60;99.90;;;;;;5098186;28;25053;-77
2023/01/27 00:44:11;;;;;;;10.95;4.40;;;1.60;99.90;;;;;;5097990;28;25071;-77
2023/01/27 00:46:40;;;;;;;13.48;5.18;;;1.60;99.90;;;;;;5098398;28;25090;-77
2023/01/27 00:49:08;;;;;;;13.70;5.53;;;1.60;99.90;;;;;;5079921;28;25074;-77
2023/01/27 00:51:35;;;;;;;12.07;4.95;;;1.60;99.90;;;;;;5097862;28;25046;-76
2023/01/27 00:54:03;;;;;;;12.98;4.70;;;1.60;99.90;;;;;;5097800;28;25113;-77
2023/01/27 00:56:31;;;;;;;8.82;4.18;;;1.60;99.90;;;;;;5098284;28;25056;-77
2023/01/27 00:58:58;;;;;;;11.80;5.30;;;1.60;99.90;;;;;;5079704;28;25056;-76
2023/01/27 01:01:26;;;;;;;12.05;4.57;;;1.60;99.90;;;;;;5097646;28;25109;-77
2023/01/27 01:03:53;;;;;;;17.52;5.03;;;1.60;99.90;;;;;;5097820;28;25111;-76
2023/01/27 01:06:20;;;;;;;12.18;4.82;;;1.60;99.90;;;;;;5079796;28;25089;-76
2023/01/27 01:08:50;;;;;;;11.60;5.32;;;1.60;99.90;;;;;;5098079;28;25049;-76
2023/01/27 01:11:18;;;;;;;10.40;4.40;;;1.60;99.90;;;;;;5098045;28;25079;-77
2023/01/27 01:13:47;;;;;;;11.98;5.03;;;1.60;99.90;;;;;;5079452;28;25138;-76
2023/01/27 01:16:20;;;;;;;11.27;5.30;;;1.70;99.90;;;;;;5079434;28;25080;-76
2023/01/27 01:18:48;;;;;;;12.13;5.07;;;1.70;99.90;;;;;;5098074;28;25055;-77
2023/01/27 01:21:16;;;;;;;11.85;5.10;;;1.70;99.90;;;;;;5079342;28;25103;-77
2023/01/27 01:23:45;;;;;;;11.40;5.38;;;1.70;99.90;;;;;;5097436;28;25059;-76
2023/01/27 01:26:14;;;;;;;12.73;4.93;;;1.70;99.90;;;;;;5097764;28;25065;-76
2023/01/27 01:28:42;;;;;;;13.27;5.70;;;1.70;99.90;;;;;;5079141;28;25067;-76
2023/01/27 01:31:13;;;;;;;11.65;5.22;;;1.70;99.90;;;;;;5079113;28;25128;-77
2023/01/27 01:33:40;;;;;;;13.32;5.22;;;1.70;99.90;;;;;;5097175;28;25070;-77
2023/01/27 01:36:12;;;;;;;11.63;5.00;;;1.70;99.90;;;;;;5097303;28;25052;-76
2023/01/27 01:38:40;;;;;;;13.07;5.40;;;1.70;99.90;;;;;;5097275;28;25098;-77
2023/01/27 01:41:12;;;;;;;12.63;5.32;;;1.80;99.90;;;;;;5097512;28;25047;-76
2023/01/27 01:43:39;;;;;;;12.18;5.78;;;1.80;99.90;;;;;;5096908;28;25081;-77
2023/01/27 01:46:09;;;;;;;13.48;5.30;;;1.80;99.90;;;;;;5097431;28;25069;-77
2023/01/27 01:48:43;;;;;;;10.13;5.18;;;1.80;99.90;;;;;;5097332;28;25074;-76
2023/01/27 01:51:13;;;;;;;14.73;5.82;;;1.80;99.90;;;;;;5096838;28;25068;-76
2023/01/27 01:53:47;;;;;;;14.18;6.57;;;1.80;99.90;;;;;;5097465;28;25069;-77
2023/01/27 01:56:20;;;;;;;10.88;5.43;;;1.80;99.90;;;;;;5096984;28;25057;-77
2023/01/27 01:58:48;;;;;;;16.50;5.68;;;1.80;99.90;;;;;;5096976;28;25051;-77
2023/01/27 02:01:17;;;;;;;13.43;5.53;;;1.80;99.90;;;;;;5096654;28;25069;-77
2023/01/27 02:03:50;;;;;;;11.48;5.10;;;1.90;99.90;;;;;;5096797;28;25142;-76
2023/01/27 02:06:17;;;;;;;12.95;5.78;;;1.90;99.90;;;;;;5096882;28;25065;-77
2023/01/27 02:08:48;;;;;;;15.60;5.75;;;1.90;99.90;;;;;;5096613;28;25103;-77
2023/01/27 02:11:15;;;;;;;12.75;4.97;;;1.90;99.90;;;;;;5078638;28;25067;-76
2023/01/27 02:13:43;;;;;;;15.45;6.57;;;1.90;99.90;;;;;;5097181;28;25064;-77
2023/01/27 02:16:11;;;;;;;12.02;5.82;;;1.90;99.90;;;;;;5078562;28;25065;-76
2023/01/27 02:18:42;;;;;;;17.02;5.55;;;1.90;99.90;;;;;;5096510;28;25079;-77
2023/01/27 02:21:09;;;;;;;14.57;6.53;;;1.90;99.90;;;;;;5078487;28;25084;-77
2023/01/27 02:23:40;;;;;;;14.63;6.00;;;2.00;99.90;;;;;;5096445;28;25075;-76
2023/01/27 02:26:21;;;;;;;16.65;6.53;;;2.00;99.90;;;;;;5096945;28;25139;-77
2023/01/27 02:29:13;;;;;;;14.25;6.32;;;1.90;99.90;;;;;;5096788;28;25084;-77
2023/01/27 02:31:40;;;;;;;16.67;6.78;;;2.00;99.90;;;;;;5096945;28;25129;-77
2023/01/27 02:34:33;;;;;;;15.57;6.68;;;2.00;99.90;;;;;;5078370;28;25061;-77
2023/01/27 02:37:05;;;;;;;20.80;6.05;;;2.00;99.90;;;;;;5096455;28;25111;-77
2023/01/27 02:39:37;;;;;;;17.55;6.82;;;2.00;99.90;;;;;;5078303;28;25082;-77
2023/01/27 02:42:07;;;;;;;14.70;7.40;;;2.00;99.90;;;;;;5074777;28;25087;-77
2023/01/27 02:44:34;;;;;;;11.50;6.38;;;1.90;99.90;;;;;;5076018;28;25074;-77
2023/01/27 02:47:01;;;;;;;10.20;5.38;;;1.90;99.90;;;;;;5076620;28;25157;-76
2023/01/27 02:49:29;;;;;;;10.88;5.65;;;2.00;99.90;;;;;;5075906;28;25057;-77
2023/01/27 02:51:56;;;;;;;10.52;5.22;;;2.00;99.90;;;;;;5074902;28;25107;-76
2023/01/27 02:54:28;;;;;;;11.50;5.50;;;2.00;99.90;;;;;;5076475;28;25082;-76
2023/01/27 02:56:56;;;;;;;9.88;4.85;;;2.00;99.90;;;;;;5076069;28;25052;-76
2023/01/27 02:59:23;;;;;;;8.90;4.22;;;2.00;99.90;;;;;;5076182;28;25060;-76
2023/01/27 03:01:50;;;;;;;9.38;4.40;;;2.00;99.90;;;;;;5075910;28;25057;-76
2023/01/27 03:04:18;;;;;;;10.50;4.53;;;2.00;99.90;;;;;;5079489;28;25102;-76
2023/01/27 03:06:45;;;;;;;7.53;3.58;;;2.00;99.90;;;;;;5079761;28;25062;-77
2023/01/27 03:09:13;;;;;;;11.27;4.55;;;2.00;99.90;;;;;;5079849;28;25081;-77
2023/01/27 03:19:56;;;;;;;7.70;3.88;;;2.00;99.90;;;;;;5079420;28;25059;-76
2023/01/27 03:22:23;;;;;;;6.93;3.47;;;2.00;99.90;;;;;;5079661;28;25105;-76
2023/01/27 03:24:50;;;;;;;7.63;3.72;;;2.00;99.90;;;;;;5079262;28;25062;-76
2023/01/27 03:27:17;;;;;;;10.60;4.57;;;2.00;99.90;;;;;;5078243;28;25114;-76
2023/01/27 03:29:56;;;;;;;11.38;5.07;;;2.10;99.90;;;;;;5079163;28;25073;-76
2023/01/27 03:32:26;;;;;;;7.50;3.47;;;2.00;99.90;;;;;;5079461;28;25065;-77
2023/01/27 03:34:56;;;;;;;7.45;3.35;;;2.00;99.90;;;;;;5079088;28;25100;-76
2023/01/27 03:48:35;;;;;;;7.78;4.03;;;2.00;99.90;;;;;;5099088;28;25087;-76
2023/01/27 03:51:05;;;;;;;10.88;4.55;;;2.00;99.90;;;;;;5099346;28;25117;-77
2023/01/27 03:53:34;;;;;;;9.05;3.92;;;2.00;99.90;;;;;;5099313;28;25107;-76
2023/01/27 03:56:02;;;;;;;10.95;4.03;;;2.00;99.90;;;;;;5080992;28;25112;-77
2023/01/27 03:58:33;;;;;;;9.05;4.13;;;2.00;99.90;;;;;;5099334;28;25130;-76
2023/01/27 04:01:04;;;;;;;6.70;3.28;;;2.00;99.90;;;;;;5098856;28;25132;-76
2023/01/27 04:09:13;;;;;;;9.18;3.78;;;2.00;99.90;;;;;;5098716;28;25088;-77
2023/01/27 04:11:57;;;;;;;8.80;4.30;;;2.00;99.90;;;;;;5098670;28;25060;-77
2023/01/27 04:14:32;;;;;;;10.63;4.30;;;2.00;99.90;;;;;;5098500;28;25092;-76
2023/01/27 04:17:10;;;;;;;9.65;4.38;;;2.00;99.90;;;;;;5098733;28;25072;-76
2023/01/27 04:19:38;;;;;;;11.55;4.55;;;2.00;99.90;;;;;;5098512;28;25129;-77
2023/01/27 04:22:07;;;;;;;9.25;4.30;;;2.00;99.90;;;;;;5098496;28;25109;-76
2023/01/27 04:24:34;;;;;;;11.40;5.32;;;2.00;99.90;;;;;;5098691;28;25053;-76
2023/01/27 04:27:04;;;;;;;11.43;5.07;;;2.00;99.90;;;;;;5098717;28;25061;-76
2023/01/27 04:29:39;;;;;;;9.32;4.30;;;2.00;99.90;;;;;;5098276;28;25135;-76
2023/01/27 04:32:10;;;;;;;10.45;5.13;;;2.00;99.90;;;;;;5098269;28;25102;-76
2023/01/27 04:34:38;;;;;;;12.93;5.40;;;2.00;99.90;;;;;;5098256;28;25161;-76
2023/01/27 04:37:07;;;;;;;15.13;5.13;;;2.00;99.90;;;;;;5080381;28;25067;-76
2023/01/27 04:39:35;;;;;;;12.48;5.53;;;2.00;99.90;;;;;;5098387;28;25073;-76
2023/01/27 04:42:02;;;;;;;11.60;5.47;;;2.00;99.90;;;;;;5079944;28;25055;-76
2023/01/27 04:44:29;;;;;;;12.05;5.32;;;2.00;99.90;;;;;;5098593;28;25071;-76
2023/01/27 04:46:57;;;;;;;13.00;6.20;;;2.10;99.90;;;;;;5079867;28;25120;-76
2023/01/27 04:49:25;;;;;;;12.32;5.70;;;2.10;99.90;;;;;;5079996;28;25116;-77
2023/01/27 04:51:52;;;;;;;14.30;5.40;;;2.10;99.90;;;;;;5098313;28;25057;-77
2023/01/27 04:54:19;;;;;;;13.30;5.60;;;2.00;99.90;;;;;;5079911;28;25048;-77
2023/01/27 04:57:04;;;;;;;11.60;5.55;;;2.00;99.90;;;;;;5098088;28;25049;-77
2023/01/27 04:59:35;;;;;;;11.27;4.65;;;2.00;99.90;;;;;;5098031;28;25076;-76
2023/01/27 05:02:03;;;;;;;8.00;4.13;;;2.10;99.90;;;;;;5097700;28;25076;-77
2023/01/27 05:04:31;;;;;;;10.88;4.80;;;2.10;99.90;;;;;;5098200;28;25089;-77
2023/01/27 05:06:58;;;;;;;8.73;4.30;;;2.10;99.90;;;;;;5098228;28;25094;-76
2023/01/27 05:09:26;;;;;;;12.90;4.07;;;2.10;99.90;;;;;;5079515;28;25085;-76
2023/01/27 05:11:53;;;;;;;11.25;4.28;;;2.10;99.90;;;;;;5097531;28;25052;-77
2023/01/27 05:14:22;;;;;;;7.65;3.75;;;2.10;99.90;;;;;;5097698;28;25057;-77
2023/01/27 05:16:50;;;;;;;9.18;4.15;;;2.10;99.90;;;;;;5097586;28;25068;-76
2023/01/27 05:19:18;;;;;;;5.25;2.67;;;2.10;99.90;;;;;;5097370;28;25062;-77
2023/01/27 05:21:45;;;;;;;5.85;2.60;;;2.10;99.90;;;;;;5097936;28;25057;-77
2023/01/27 05:24:12;;;;;;;6.65;3.63;;;2.20;99.90;;;;;;5097298;28;25055;-76
2023/01/27 05:26:41;;;;;;;7.47;3.45;;;2.20;99.90;;;;;;5096783;28;25084;-76
2023/01/27 05:29:09;;;;;;;6.82;3.55;;;2.20;99.90;;;;;;5097455;28;25111;-76
2023/01/27 05:31:37;;;;;;;5.75;2.78;;;2.10;99.90;;;;;;5097446;28;25085;-76
2023/01/27 05:34:04;;;;;;;4.63;2.40;;;2.10;99.90;;;;;;5097065;28;25062;-76
2023/01/27 05:36:32;;;;;;;6.38;3.30;;;2.20;99.90;;;;;;5097750;28;25065;-76
2023/01/27 05:39:00;;;;;;;5.32;2.88;;;2.20;99.90;;;;;;5097589;28;25067;-76
2023/01/27 05:41:30;;;;;;;5.25;2.58;;;2.20;99.90;;;;;;5079037;28;25114;-77
2023/01/27 05:43:57;;;;;;;7.45;3.75;;;2.20;99.90;;;;;;5096678;28;25121;-77
2023/01/27 05:46:28;;;;;;;6.95;3.70;;;2.20;99.90;;;;;;5097100;28;25148;-76
2023/01/27 05:49:00;;;;;;;7.97;3.90;;;2.20;99.90;;;;;;5097148;28;25080;-77
2023/01/27 05:51:35;;;;;;;7.90;3.80;;;2.20;99.90;;;;;;5078935;28;25156;-76
2023/01/27 05:54:03;;;;;;;6.68;3.45;;;2.20;99.90;;;;;;5096749;28;25086;-77
2023/01/27 05:56:30;;;;;;;6.47;3.13;;;2.20;99.90;;;;;;5078942;28;25122;-76
2023/01/27 05:58:58;;;;;;;7.80;3.92;;;2.20;99.90;;;;;;5097265;28;25092;-76
2023/01/27 06:01:28;;;;;;;6.70;3.63;;;2.20;99.90;;;;;;5078776;28;25105;-76
2023/01/27 06:03:55;;;;;;;6.53;3.47;;;2.20;99.90;;;;;;5097204;28;25064;-76
2023/01/27 06:06:24;;;;;;;12.02;5.38;;;2.20;99.90;;;;;;5096740;28;25084;-76
2023/01/27 06:08:51;;;;;;;15.98;6.00;;;2.20;99.90;;;;;;5097037;28;25123;-76
2023/01/27 06:11:20;;;;;;;30.40;10.88;;;2.20;99.90;;;;;;5096827;28;25101;-76
2023/01/27 06:13:47;;;;;;;20.30;8.00;;;2.20;99.90;;;;;;5096527;28;25080;-76
2023/01/27 06:16:17;;;;;;;11.20;4.82;;;2.20;99.90;;;;;;5096651;28;25058;-76
2023/01/27 06:18:45;;;;;;;8.10;4.03;;;2.20;99.90;;;;;;5096718;28;25067;-76
2023/01/27 06:21:13;;;;;;;7.80;3.78;;;2.20;99.90;;;;;;5096441;28;25076;-76
2023/01/27 06:23:40;;;;;;;6.82;3.83;;;2.20;99.90;;;;;;5096635;28;25061;-76
2023/01/27 06:26:11;;;;;;;6.85;3.47;;;2.30;99.90;;;;;;5096676;28;25069;-76
2023/01/27 06:28:39;;;;;;;7.35;4.05;;;2.30;99.90;;;;;;5096853;28;25075;-76
2023/01/27 06:31:15;;;;;;;9.77;4.40;;;2.30;99.90;;;;;;5096341;28;25090;-76
2023/01/27 06:33:43;;;;;;;7.00;4.15;;;2.30;99.90;;;;;;5096633;28;25081;-76
2023/01/27 06:36:13;;;;;;;7.78;3.67;;;2.40;99.90;;;;;;5078398;28;25074;-77
2023/01/27 06:38:41;;;;;;;5.85;3.28;;;2.30;99.90;;;;;;5099178;28;25050;-76
2023/01/27 06:41:09;;;;;;;6.93;3.90;;;2.30;99.90;;;;;;5100303;28;25065;-76
2023/01/27 06:43:37;;;;;;;5.68;3.17;;;2.40;99.90;;;;;;5100174;28;25061;-76
2023/01/27 06:46:04;;;;;;;6.70;3.72;;;2.40;99.90;;;;;;5100312;28;25162;-77
2023/01/27 06:48:32;;;;;;;6.45;3.22;;;2.40;99.90;;;;;;5100389;28;25074;-76
2023/01/27 06:51:01;;;;;;;7.72;3.88;;;2.40;99.90;;;;;;5100228;28;25049;-75
2023/01/27 06:53:30;;;;;;;8.93;3.72;;;2.40;99.90;;;;;;5100238;28;25080;-77
2023/01/27 06:55:59;;;;;;;6.55;3.30;;;2.40;99.90;;;;;;5100268;28;25080;-88
2023/01/27 06:58:27;;;;;;;6.05;2.92;;;2.40;99.90;;;;;;5081778;28;25143;-86
2023/01/27 07:00:54;;;;;;;9.23;3.78;;;2.40;99.90;;;;;;5099465;28;25082;-83
2023/01/27 07:03:22;;;;;;;5.38;2.72;;;2.40;99.90;;;;;;5082139;28;25113;-74
2023/01/27 07:05:49;;;;;;;7.80;2.88;;;2.40;99.90;;;;;;5100087;28;25060;-85
2023/01/27 07:08:16;;;;;;;5.25;2.60;;;2.40;99.90;;;;;;5099419;28;25109;-79
2023/01/27 07:10:48;;;;;;;6.30;3.10;;;2.40;99.90;;;;;;5100136;28;25078;-79
2023/01/27 07:13:17;;;;;;;4.65;2.25;;;2.40;99.90;;;;;;5081817;28;25124;-77
2023/01/27 07:15:45;;;;;;;4.93;2.40;;;2.50;99.90;;;;;;5099837;28;25099;-77
2023/01/27 07:18:13;;;;;;;6.55;2.60;;;2.40;99.90;;;;;;5100493;28;25107;-80
2023/01/27 07:20:41;;;;;;;6.68;3.00;;;2.40;99.90;;;;;;5081701;28;25113;-78
2023/01/27 07:23:10;;;;;;;4.82;2.42;;;2.50;99.90;;;;;;5099635;28;25159;-82
2023/01/27 07:25:38;;;;;;;4.38;2.33;;;2.50;99.90;;;;;;5099627;28;25071;-83
2023/01/27 07:28:05;;;;;;;4.65;2.50;;;2.40;99.90;;;;;;5099668;28;25062;-80
2023/01/27 07:30:33;;;;;;;6.45;3.28;;;2.40;99.90;;;;;;5080871;28;25057;-83
2023/01/27 07:33:12;;;;;;;5.47;2.90;;;2.50;99.90;;;;;;5080893;28;25054;-83
2023/01/27 07:35:41;;;;;;;5.10;2.70;;;2.50;99.90;;;;;;5081694;28;25053;-84
2023/01/27 07:38:09;;;;;;;4.05;2.20;;;2.50;99.90;;;;;;5099256;28;25105;-78
2023/01/27 07:40:36;;;;;;;4.60;2.38;;;2.50;99.90;;;;;;5099687;28;25136;-79
2023/01/27 07:43:04;;;;;;;3.95;2.55;;;2.50;99.90;;;;;;5099042;28;25080;-81
2023/01/27 07:45:31;;;;;;;4.95;2.78;;;2.50;99.90;;;;;;5099532;28;25081;-77
2023/01/27 07:48:04;;;;;;;4.45;2.47;;;2.50;99.90;;;;;;5080914;28;25060;-81
2023/01/27 07:50:32;;;;;;;4.40;1.95;;;2.50;99.90;;;;;;5098978;28;25110;-82
2023/01/27 07:53:01;;;;;;;5.10;2.97;;;2.50;99.90;;;;;;5080550;28;25081;-82
2023/01/27 07:55:29;;;;;;;2.47;1.50;;;2.50;99.90;;;;;;5080428;28;25048;-79
2023/01/27 07:57:57;;;;;;;4.65;1.85;;;2.50;99.90;;;;;;5081023;28;25071;-83
2023/01/27 08:00:24;;;;;;;3.15;1.80;;;2.50;99.90;;;;;;5099172;28;25077;-84
2023/01/27 08:02:53;;;;;;;3.42;2.05;;;2.60;99.90;;;;;;5080487;28;25100;-88
2023/01/27 08:05:21;;;;;;;5.93;2.58;;;2.60;99.90;;;;;;5098863;28;25051;-84
2023/01/27 08:07:50;;;;;;;3.28;1.67;;;2.60;99.90;;;;;;5098991;28;25077;-73
2023/01/27 08:10:18;;;;;;;4.15;2.20;;;2.60;99.90;;;;;;5098778;28;25056;-75
2023/01/27 08:12:46;;;;;;;3.67;2.17;;;2.60;99.90;;;;;;5080825;28;25052;-74
2023/01/27 08:15:14;;;;;;;4.82;2.70;;;2.60;99.90;;;;;;5098623;28;25073;-74
2023/01/27 08:17:42;;;;;;;4.32;2.50;;;2.60;99.90;;;;;;5098542;28;25100;-75
2023/01/27 08:20:11;;;;;;;4.72;2.35;;;2.60;99.90;;;;;;5098796;28;25069;-74
2023/01/27 08:22:41;;;;;;;6.78;4.00;;;2.60;99.90;;;;;;5080697;28;25142;-74
2023/01/27 08:25:09;;;;;;;5.53;3.38;;;2.60;99.90;;;;;;5098974;28;25137;-74
2023/01/27 08:27:36;;;;;;;5.95;3.90;;;2.60;99.90;;;;;;5098339;28;25073;-75
2023/01/27 08:30:04;;;;;;;5.25;2.38;;;2.70;99.90;;;;;;5098330;28;25072;-75
2023/01/27 08:32:33;;;;;;;4.57;2.60;;;2.70;99.90;;;;;;5098469;28;25156;-78
2023/01/27 08:35:00;;;;;;;4.70;2.75;;;2.70;99.90;;;;;;5098233;28;25065;-77
2023/01/27 08:37:28;;;;;;;3.75;2.20;;;2.70;99.90;;;;;;5098195;28;25053;-77
2023/01/27 08:39:55;;;;;;;3.47;2.08;;;2.80;99.90;;;;;;5098707;28;25060;-77
2023/01/27 08:42:23;;;;;;;4.55;2.97;;;2.80;99.90;;;;;;5098254;28;25087;-77
2023/01/27 08:44:50;;;;;;;7.88;5.10;;;2.80;99.90;;;;;;5097979;28;25061;-77
2023/01/27 08:47:19;;;;;;;6.13;4.22;;;2.80;99.90;;;;;;5098543;28;25109;-77
2023/01/27 08:49:46;;;;;;;9.57;4.25;;;2.80;99.90;;;;;;5098037;28;25068;-77
2023/01/27 08:52:14;;;;;;;6.25;4.18;;;2.80;99.90;;;;;;5098179;28;25105;-77
2023/01/27 08:54:41;;;;;;;5.70;3.38;;;2.80;99.90;;;;;;5097814;28;25087;-78
2023/01/27 08:57:08;;;;;;;6.30;3.78;;;2.80;99.90;;;;;;5079759;28;25071;-77
2023/01/27 08:59:36;;;;;;;7.28;3.92;;;2.90;99.90;;;;;;5079512;28;25116;-77
2023/01/27 09:02:03;;;;;;;6.43;3.90;;;2.90;99.90;;;;;;5097663;28;25094;-77
2023/01/27 09:04:31;;;;;;;4.35;2.30;;;2.90;99.90;;;;;;5097885;28;25082;-78
2023/01/27 09:06:58;;;;;;;5.78;2.53;;;2.90;99.90;;;;;;5097670;28;25073;-77
2023/01/27 09:09:25;;;;;;;3.20;1.98;;;2.90;99.90;;;;;;5079618;28;25078;-78
2023/01/27 09:11:53;;;;;;;2.80;1.75;;;2.90;99.90;;;;;;5079608;28;25115;-78
2023/01/27 09:14:21;;;;;;;3.08;1.63;;;2.90;99.90;;;;;;5097754;28;25050;-77
2023/01/27 09:16:48;;;;;;;2.50;1.65;;;2.90;99.90;;;;;;5097747;28;25074;-78
2023/01/27 09:19:16;;;;;;;3.60;1.95;;;3.00;99.90;;;;;;5079355;28;25115;-78
2023/01/27 09:21:43;;;;;;;2.50;1.50;;;3.00;99.90;;;;;;5097769;28;25072;-78
2023/01/27 09:24:12;;;;;;;2.58;1.60;;;3.00;99.90;;;;;;5097885;28;25118;-77
2023/01/27 09:26:39;;;;;;;2.28;0.98;;;3.00;99.90;;;;;;5097337;28;25070;-77
2023/01/27 09:29:07;;;;;;;3.20;1.55;;;3.00;99.90;;;;;;5079229;28;25072;-77
2023/01/27 09:31:34;;;;;;;2.53;1.20;;;3.00;99.90;;;;;;5098125;28;25120;-77
2023/01/27 09:34:01;;;;;;;3.03;1.60;;;3.00;99.90;;;;;;5079121;28;25068;-78
2023/01/27 09:36:28;;;;;;;2.28;1.40;;;3.00;99.90;;;;;;5079284;28;25052;-78
2023/01/27 09:39:04;;;;;;;3.58;1.98;;;3.00;99.90;;;;;;5096347;28;25105;-78
2023/01/27 09:41:53;;;;;;;4.32;2.67;;;3.00;99.90;;;;;;5097294;28;25079;-78
2023/01/27 09:44:39;;;;;;;3.70;2.20;;;3.00;99.90;;;;;;5077497;28;25077;-77
2023/01/27 09:47:12;;;;;;;2.90;2.13;;;3.00;99.90;;;;;;5076597;28;25111;-78
2023/01/27 09:49:59;;;;;;;3.50;1.90;;;3.00;99.90;;;;;;5077490;28;25054;-78
2023/01/27 09:52:53;;;;;;;2.80;1.80;;;3.10;99.90;;;;;;5076803;28;25134;-78
2023/01/27 09:55:42;;;;;;;3.17;1.88;;;3.10;99.90;;;;;;5058983;28;25053;-77
2023/01/27 09:58:29;;;;;;;3.83;2.20;;;3.10;99.90;;;;;;5076789;28;25099;-79
2023/01/27 10:01:05;;;;;;;5.15;1.88;;;3.10;99.90;;;;;;5076688;28;25142;-73
2023/01/27 10:04:08;;;;;;;3.85;1.90;;;3.10;99.90;;;;;;5076700;28;25074;-73
2023/01/27 10:07:01;;;;;;;3.05;1.58;;;3.20;99.90;;;;;;5076423;28;25063;-73
2023/01/27 10:09:35;;;;;;;3.00;2.42;;;3.10;99.90;;;;;;5076640;28;25095;-73
2023/01/27 10:12:41;;;;;;;3.47;2.35;;;3.10;99.90;;;;;;5058817;28;25105;-73
2023/01/27 10:15:31;;;;;;;2.75;1.75;;;3.10;99.90;;;;;;5076298;28;25066;-73
2023/01/27 10:18:16;;;;;;;2.25;1.52;;;3.00;99.90;;;;;;5076862;28;25065;-73
2023/01/27 10:21:07;;;;;;;2.60;1.58;;;3.10;99.90;;;;;;5077263;28;25055;-73
2023/01/27 10:23:55;;;;;;;2.97;1.80;;;3.10;99.90;;;;;;5076511;28;25082;-72
2023/01/27 10:26:42;;;;;;;2.58;1.60;;;3.20;99.90;;;;;;5058466;28;25051;-73
2023/01/27 10:29:25;;;;;;;4.78;1.48;;;3.30;99.90;;;;;;5076253;28;25076;-74
2023/01/27 10:32:00;;;;;;;3.45;1.17;;;3.40;99.90;;;;;;5058494;28;25057;-72
2023/01/27 10:34:34;;;;;;;2.55;1.30;;;3.40;99.90;;;;;;5076160;28;25089;-73
2023/01/27 10:37:17;;;;;;;3.22;1.77;;;3.40;99.90;;;;;;5076050;28;25060;-73
2023/01/27 10:40:03;;;;;;;3.28;1.70;;;3.50;99.90;;;;;;5058373;28;25063;-73
2023/01/27 10:42:34;;;;;;;2.20;1.38;;;3.50;99.90;;;;;;5082557;28;25072;-73
2023/01/27 10:45:17;;;;;;;2.40;1.25;;;3.60;99.90;;;;;;5078332;28;25071;-71
2023/01/27 10:48:15;;;;;;;3.55;1.10;;;3.70;99.90;;;;;;5096776;28;25118;-72
2023/01/27 10:50:51;;;;;;;1.90;1.00;;;3.70;99.90;;;;;;5096500;28;25046;-72
2023/01/27 10:53:31;;;;;;;2.60;0.90;;;3.70;99.90;;;;;;5096416;28;25090;-73
2023/01/27 10:56:26;;;;;;;1.17;0.65;;;3.60;99.90;;;;;;5096096;28;25061;-72
2023/01/27 10:59:23;;;;;;;1.48;0.85;;;3.50;99.90;;;;;;5096963;28;25086;-73
2023/01/27 11:02:23;;;;;;;3.28;2.30;;;3.50;99.90;;;;;;5096129;28;25082;-73
2023/01/27 11:04:58;;;;;;;4.85;1.92;;;3.50;99.90;;;;;;5089641;28;25075;-75
2023/01/27 11:07:26;;;;;;;13.15;5.72;;;3.40;99.90;;;;;;5096585;28;25094;-73
2023/01/27 11:09:59;;;;;;;10.13;4.65;;;3.40;99.90;;;;;;5096535;28;25068;-74
2023/01/27 11:12:36;;;;;;;3.60;1.73;;;3.40;99.90;;;;;;5078193;28;25119;-74
2023/01/27 11:15:20;;;;;;;4.60;2.05;;;3.30;99.90;;;;;;5096251;28;25072;-74
2023/01/27 11:17:52;;;;;;;9.43;3.25;;;3.30;99.90;;;;;;5078100;28;25101;-79
2023/01/27 11:20:34;;;;;;;4.88;2.50;;;3.30;99.90;;;;;;5096110;28;25069;-72
2023/01/27 11:23:39;;;;;;;12.32;4.25;;;3.40;99.90;;;;;;5078776;28;25061;-72
2023/01/27 11:26:30;;;;;;;3.75;2.22;;;3.40;99.90;;;;;;5099775;28;25071;-72
2023/01/27 11:29:31;;;;;;;7.38;2.47;;;3.40;99.90;;;;;;5099438;28;25081;-73
2023/01/27 11:32:29;;;;;;;4.93;1.90;;;3.50;99.90;;;;;;5099790;28;25119;-73
2023/01/27 11:35:11;;;;;;;1.85;1.23;;;3.70;99.90;;;;;;5099404;28;25092;-72
2023/01/27 11:37:51;;;;;;;2.33;1.33;;;3.80;99.90;;;;;;5099503;28;25049;-72
2023/01/27 11:40:32;;;;;;;2.63;1.65;;;3.90;99.90;;;;;;5099324;28;25069;-71
2023/01/27 11:43:01;;;;;;;1.58;0.90;;;3.90;99.90;;;;;;5099736;28;25117;-71
2023/01/27 11:45:34;;;;;;;4.78;1.17;;;3.90;99.90;;;;;;5099227;28;25085;-72
2023/01/27 11:48:06;;;;;;;2.22;1.02;;;3.90;99.90;;;;;;5099795;28;25066;-73
2023/01/27 11:50:35;;;;;;;3.85;1.00;;;3.80;99.90;;;;;;5099152;28;25067;-73
2023/01/27 11:53:38;;;;;;;1.63;0.73;;;3.80;99.90;;;;;;5099148;28;25079;-73
2023/01/27 11:56:17;;;;;;;1.65;0.73;;;3.80;99.90;;;;;;5099227;28;25057;-71
2023/01/27 11:58:55;;;;;;;2.92;0.93;;;3.70;99.90;;;;;;5099234;28;25074;-72
2023/01/27 12:01:35;;;;;;;2.45;1.02;;;3.70;99.90;;;;;;5081004;28;25076;-72
2023/01/27 12:04:19;;;;;;;1.20;0.65;;;3.60;99.90;;;;;;5080870;28;25075;-72
2023/01/27 12:06:56;;;;;;;2.63;0.80;;;3.50;99.90;;;;;;5099497;28;25061;-72
2023/01/27 12:09:36;;;;;;;8.05;1.30;;;3.50;99.90;;;;;;5099023;28;25074;-73
2023/01/27 12:12:20;;;;;;;2.42;1.15;;;3.50;99.90;;;;;;5080863;28;25148;-77
2023/01/27 12:14:53;;;;;;;4.38;1.30;;;3.50;99.90;;;;;;5080712;28;25123;-78
2023/01/27 12:17:42;;;;;;;3.85;1.13;;;3.50;99.90;;;;;;5098795;28;25078;-78
2023/01/27 12:20:29;;;;;;;2.22;1.20;;;3.50;99.90;;;;;;5098570;28;25111;-82
2023/01/27 12:23:24;;;;;;;3.75;1.35;;;3.60;99.90;;;;;;5098596;28;25054;-79
2023/01/27 12:26:01;;;;;;;4.68;1.40;;;3.50;99.90;;;;;;5060520;28;25142;-78
2023/01/27 12:28:49;;;;;;;;;;;3.50;99.90;;;;;;5098750;28;25062;-77
2023/01/27 12:31:26;;;;;;;2.72;1.15;;;3.50;99.90;;;;;;5080685;28;25135;-75
2023/01/27 12:34:07;;;;;;;5.68;1.95;;;3.60;99.90;;;;;;5098324;28;25062;-75
2023/01/27 12:36:43;;;;;;;8.35;3.97;;;3.50;99.90;;;;;;5097716;28;25078;-75
2023/01/27 12:39:32;;;;;;;6.45;3.00;;;3.50;99.90;;;;;;5098226;28;25108;-75
2023/01/27 12:42:00;;;;;;;5.20;3.00;;;3.50;99.90;;;;;;5098401;28;25114;-75
2023/01/27 12:44:50;;;;;;;5.38;2.47;;;3.50;99.90;;;;;;5098286;28;25072;-75
2023/01/27 12:47:26;;;;;;;5.72;2.75;;;3.50;99.90;;;;;;5097998;28;25066;-75
2023/01/27 12:50:20;;;;;;;5.57;2.58;;;3.50;99.90;;;;;;5097994;28;25049;-75
2023/01/27 12:53:22;;;;;;;9.77;3.45;;;3.50;99.90;;;;;;5098157;28;25107;-75
2023/01/27 12:56:11;;;;;;;6.75;3.17;;;3.50;99.90;;;;;;5098146;28;25095;-75
2023/01/27 12:58:54;;;;;;;5.40;2.10;;;3.50;99.90;;;;;;5097705;28;25052;-76
2023/01/27 13:01:30;;;;;;;4.20;2.08;;;3.50;99.90;;;;;;5098104;28;25113;-75
2023/01/27 13:04:18;;;;;;;6.07;1.88;;;3.40;99.90;;;;;;5079742;28;25110;-75
2023/01/27 13:07:05;;;;;;;2.72;1.60;;;3.50;99.90;;;;;;5097596;28;25060;-76
2023/01/27 13:10:03;;;;;;;3.85;1.92;;;3.50;99.90;;;;;;5097890;28;25124;-75
2023/01/27 13:12:58;;;;;;;5.28;1.80;;;3.60;99.90;;;;;;5097728;28;25061;-75
2023/01/27 13:15:27;;;;;;;5.75;2.65;;;3.60;99.90;;;;;;5098326;28;25134;-75
2023/01/27 13:18:00;;;;;;;4.13;1.55;;;3.60;99.90;;;;;;5097493;28;25097;-75
2023/01/27 13:20:48;;;;;;;1.55;1.00;;;3.60;99.90;;;;;;5097965;28;25085;-75
2023/01/27 13:23:34;;;;;;;1.85;0.90;;;3.60;99.90;;;;;;5097343;28;25052;-75
2023/01/27 13:26:11;;;;;;;2.30;1.30;;;3.60;99.90;;;;;;5097635;28;25142;-75
2023/01/27 13:29:15;;;;;;;1.42;0.80;;;3.60;99.90;;;;;;5097199;28;25086;-75
2023/01/27 13:31:56;;;;;;;3.40;1.00;;;3.50;99.90;;;;;;5097694;28;25116;-75
2023/01/27 13:34:32;;;;;;;3.75;1.40;;;3.50;99.90;;;;;;5097422;28;25111;-76
2023/01/27 13:37:05;;;;;;;3.20;1.15;;;3.50;99.90;;;;;;5097415;28;25113;-76
2023/01/27 13:39:50;;;;;;;2.20;1.20;;;3.40;99.90;;;;;;5079331;28;25118;-76
2023/01/27 13:42:36;;;;;;;3.85;1.55;;;3.30;99.90;;;;;;5097037;28;25125;-76
2023/01/27 13:45:43;;;;;;;1.92;1.20;;;3.30;99.90;;;;;;5097295;28;25063;-74
2023/01/27 13:48:38;;;;;;;3.17;1.20;;;3.30;99.90;;;;;;5096857;28;25063;-75
2023/01/27 13:51:18;;;;;;;2.67;1.23;;;3.30;99.90;;;;;;5092575;28;25049;-75
2023/01/27 13:53:47;;;;;;;3.63;1.40;;;3.30;99.90;;;;;;5096853;28;25060;-74
2023/01/27 13:56:48;;;;;;;1.83;1.13;;;3.30;99.90;;;;;;5097011;28;25134;-75
2023/01/27 13:59:52;;;;;;;2.63;1.23;;;3.20;99.90;;;;;;5097049;28;25089;-75